createdAt,value
2023-02-01T00:00:28.993Z,96396.56
2023-02-01T00:02:55.484Z,96411.75
2023-02-01T00:05:21.931Z,96407.72
2023-02-01T00:07:50.044Z,96411.81
2023-02-01T00:10:17.468Z,96408.09
2023-02-01T00:12:44.231Z,96411.56
2023-02-01T00:15:11.181Z,96414.09
2023-02-01T00:17:38.187Z,96399.66
2023-02-01T00:20:05.139Z,96399.91
2023-02-01T00:22:31.585Z,96402.50
2023-02-01T00:24:58.108Z,96401.81
2023-02-01T00:27:24.642Z,96411.38
2023-02-01T00:29:51.203Z,96427.81
2023-02-01T00:32:17.640Z,96400.25
2023-02-01T00:34:44.089Z,96392.53
2023-02-01T00:37:10.560Z,96385.81
2023-02-01T00:39:37.000Z,96386.81
2023-02-01T00:42:03.567Z,96402.47
2023-02-01T00:44:34.077Z,96386.38
2023-02-01T00:47:01.365Z,96382.50
2023-02-01T00:49:28.925Z,96385.00
2023-02-01T00:51:55.443Z,96387.81
2023-02-01T00:54:22.044Z,96387.16
2023-02-01T00:56:48.496Z,96384.28
2023-02-01T00:59:15.048Z,96382.19
2023-02-01T01:01:41.626Z,96385.56
2023-02-01T01:04:08.089Z,96350.00
2023-02-01T01:06:35.489Z,96379.06
2023-02-01T01:09:06.513Z,96379.06
2023-02-01T01:11:36.074Z,96374.41
2023-02-01T01:14:03.512Z,96392.47
2023-02-01T01:16:31.966Z,96383.59
2023-02-01T01:18:58.590Z,96368.72
2023-02-01T01:21:25.656Z,96380.53
2023-02-01T01:23:52.351Z,96371.22
2023-02-01T01:26:21.812Z,96381.97
2023-02-01T01:28:48.406Z,96379.25
2023-02-01T01:31:17.629Z,96386.78
2023-02-01T01:33:45.148Z,96350.44
2023-02-01T01:36:12.999Z,96375.31
2023-02-01T01:38:40.971Z,96378.59
2023-02-01T01:41:08.768Z,96378.88
2023-02-01T01:43:54.428Z,96348.06
2023-02-01T01:46:29.197Z,96368.06
2023-02-01T01:49:13.674Z,96349.88
2023-02-01T01:51:45.448Z,96358.63
2023-02-01T01:54:18.228Z,96310.59
2023-02-01T01:56:51.317Z,96331.28
2023-02-01T01:59:18.483Z,96339.56
2023-02-01T02:01:45.130Z,96314.69
2023-02-01T02:04:11.959Z,96331.50
2023-02-01T02:06:48.963Z,96321.97
2023-02-01T02:09:17.195Z,96322.78
2023-02-01T02:11:43.938Z,96316.13
2023-02-01T02:14:14.781Z,96334.06
2023-02-01T02:16:58.946Z,96330.69
2023-02-01T02:19:47.317Z,96343.63
2023-02-01T02:22:36.129Z,96346.31
2023-02-01T02:25:37.198Z,96349.53
2023-02-01T02:28:22.440Z,96355.41
2023-02-01T02:31:02.229Z,96347.91
2023-02-01T02:33:57.996Z,96331.06
2023-02-01T02:36:46.530Z,96336.00
2023-02-01T02:39:30.230Z,96339.81
2023-02-01T02:42:31.822Z,96347.28
2023-02-01T02:45:36.810Z,96350.72
2023-02-01T02:48:18.630Z,96338.72
2023-02-01T02:51:36.330Z,96338.16
2023-02-01T02:54:40.901Z,96333.88
2023-02-01T02:57:29.885Z,96323.16
2023-02-01T03:00:20.286Z,96317.69
2023-02-01T03:03:07.015Z,96324.97
2023-02-01T03:05:38.473Z,96319.44
2023-02-01T03:08:11.130Z,96322.53
2023-02-01T03:11:03.351Z,96320.91
2023-02-01T03:13:48.831Z,96314.13
2023-02-01T03:16:27.058Z,96308.34
2023-02-01T03:19:04.769Z,96310.88
2023-02-01T03:21:38.828Z,96302.47
2023-02-01T03:24:11.667Z,96298.59
2023-02-01T03:26:44.518Z,96298.84
2023-02-01T03:29:20.696Z,96304.53
2023-02-01T03:31:47.204Z,96296.00
2023-02-01T03:34:14.031Z,96301.66
2023-02-01T03:36:50.039Z,96287.59
2023-02-01T03:39:46.326Z,96305.44
2023-02-01T03:42:22.340Z,96289.69
2023-02-01T03:45:03.038Z,96301.72
2023-02-01T03:47:34.464Z,96275.84
2023-02-01T03:50:08.014Z,96285.91
2023-02-01T03:52:42.719Z,96299.09
2023-02-01T03:55:13.581Z,96270.16
2023-02-01T03:57:46.596Z,96272.31
2023-02-01T04:00:21.215Z,96288.22
2023-02-01T04:02:50.819Z,96282.91
2023-02-01T04:05:17.738Z,96278.09
2023-02-01T04:07:55.196Z,96291.28
2023-02-01T04:10:21.968Z,96288.66
2023-02-01T04:12:48.617Z,96294.75
2023-02-01T04:15:15.227Z,96287.13
2023-02-01T04:17:41.663Z,96285.25
2023-02-01T04:20:09.949Z,96295.91
2023-02-01T04:22:42.524Z,96282.84
2023-02-01T04:25:09.241Z,96284.69
2023-02-01T04:27:36.225Z,96228.19
2023-02-01T04:30:04.439Z,96240.97
2023-02-01T04:32:31.850Z,96233.81
2023-02-01T04:34:58.271Z,96292.88
2023-02-01T04:40:11.506Z,96296.00
2023-02-01T04:42:41.066Z,96296.81
2023-02-01T04:45:08.352Z,96281.06
2023-02-01T04:47:34.825Z,96303.50
2023-02-01T04:50:04.067Z,96299.19
2023-02-01T04:52:30.482Z,96261.63
2023-02-01T04:54:59.292Z,96275.94
2023-02-01T04:57:26.655Z,96278.34
2023-02-01T04:59:53.095Z,96261.31
2023-02-01T05:02:19.647Z,96296.50
2023-02-01T05:04:46.229Z,96275.72
2023-02-01T05:07:12.705Z,96290.34
2023-02-01T05:09:39.159Z,96299.44
2023-02-01T05:12:24.781Z,96293.66
2023-02-01T05:14:51.269Z,96294.44
2023-02-01T05:17:17.682Z,96295.78
2023-02-01T05:19:44.135Z,96296.59
2023-02-01T05:22:10.592Z,96293.53
2023-02-01T05:24:37.114Z,96287.28
2023-02-01T05:27:03.587Z,96297.06
2023-02-01T05:29:30.148Z,96309.53
2023-02-01T05:31:58.112Z,96301.13
2023-02-01T05:34:27.303Z,96301.81
2023-02-01T05:36:53.768Z,96284.22
2023-02-01T05:39:20.236Z,96291.03
2023-02-01T05:41:46.677Z,96283.56
2023-02-01T05:44:13.321Z,96283.25
2023-02-01T05:46:39.879Z,96285.50
2023-02-01T05:49:06.361Z,96288.78
2023-02-01T05:51:32.773Z,96287.66
2023-02-01T05:53:59.215Z,96277.06
2023-02-01T05:56:25.679Z,96291.59
2023-02-01T05:58:52.219Z,96296.81
2023-02-01T06:01:18.701Z,96252.47
2023-02-01T06:03:45.208Z,96269.25
2023-02-01T06:06:11.692Z,96234.31
2023-02-01T06:08:41.089Z,96248.75
2023-02-01T06:11:08.077Z,96288.34
2023-02-01T06:13:34.954Z,96259.28
2023-02-01T06:16:03.332Z,96269.38
2023-02-01T06:18:31.878Z,96259.53
2023-02-01T06:21:02.917Z,96274.16
2023-02-01T06:23:30.769Z,96263.16
2023-02-01T06:26:03.489Z,96263.72
2023-02-01T06:28:30.763Z,96264.19
2023-02-01T06:30:59.118Z,96231.25
2023-02-01T06:33:26.462Z,96264.63
2023-02-01T06:36:00.493Z,96274.72
2023-02-01T06:38:27.967Z,96273.72
2023-02-01T06:40:55.826Z,96282.44
2023-02-01T06:43:23.379Z,96267.59
2023-02-01T06:45:50.559Z,96249.19
2023-02-01T06:48:17.054Z,96276.91
2023-02-01T06:50:43.764Z,96252.38
2023-02-01T06:53:10.248Z,96265.91
2023-02-01T06:55:37.018Z,96230.06
2023-02-01T06:58:03.829Z,96230.06
2023-02-01T07:00:30.483Z,96255.78
2023-02-01T07:02:58.948Z,96251.16
2023-02-01T07:05:25.388Z,96262.03
2023-02-01T07:07:51.984Z,96256.94
2023-02-01T07:10:18.421Z,96263.50
2023-02-01T07:12:44.841Z,96252.84
2023-02-01T07:15:11.575Z,96264.31
2023-02-01T07:17:37.975Z,96260.78
2023-02-01T07:20:04.995Z,96250.34
2023-02-01T07:22:32.075Z,96244.22
2023-02-01T07:24:58.548Z,96252.06
2023-02-01T07:27:26.574Z,96242.19
2023-02-01T07:29:53.430Z,96219.38
2023-02-01T07:32:20.000Z,96240.00
2023-02-01T07:34:46.478Z,96251.81
2023-02-01T07:37:13.016Z,96243.84
2023-02-01T07:39:39.483Z,96246.81
2023-02-01T07:42:06.775Z,96248.06
2023-02-01T07:44:33.234Z,96242.06
2023-02-01T07:46:59.631Z,96251.00
2023-02-01T07:49:26.290Z,96247.84
2023-02-01T07:51:53.213Z,96259.41
2023-02-01T07:54:19.628Z,96261.22
2023-02-01T07:56:46.055Z,96269.84
2023-02-01T07:59:12.774Z,96275.66
2023-02-01T08:01:39.349Z,96277.69
2023-02-01T08:04:05.918Z,96284.47
2023-02-01T08:06:35.495Z,96294.91
2023-02-01T08:09:05.913Z,96286.19
2023-02-01T08:11:32.398Z,96289.72
2023-02-01T08:13:59.642Z,96312.63
2023-02-01T08:16:26.405Z,96309.81
2023-02-01T08:18:54.282Z,96295.03
2023-02-01T08:21:29.345Z,96298.44
2023-02-01T08:23:57.218Z,96280.94
2023-02-01T08:26:26.265Z,96304.56
2023-02-01T08:28:58.963Z,96299.09
2023-02-01T08:31:27.184Z,96307.28
2023-02-01T08:33:56.424Z,96312.72
2023-02-01T08:36:24.741Z,96312.50
2023-02-01T08:38:51.230Z,96319.88
2023-02-01T08:41:20.868Z,96288.31
2023-02-01T08:43:48.844Z,96306.56
2023-02-01T08:46:15.606Z,96304.09
2023-02-01T08:48:42.195Z,96287.16
2023-02-01T08:51:12.173Z,96314.28
2023-02-01T08:53:42.177Z,96301.81
2023-02-01T08:56:11.232Z,96309.81
2023-02-01T08:58:37.923Z,96303.25
2023-02-01T09:01:16.181Z,96300.31
2023-02-01T09:03:43.086Z,96306.53
2023-02-01T09:06:13.521Z,96294.94
2023-02-01T09:08:41.002Z,96310.69
2023-02-01T09:11:12.161Z,96310.38
2023-02-01T09:13:38.717Z,96311.94
2023-02-01T09:16:05.996Z,96313.06
2023-02-01T09:18:32.504Z,96292.44
2023-02-01T09:20:58.977Z,96293.66
2023-02-01T09:23:25.418Z,96304.88
2023-02-01T09:25:52.425Z,96306.09
2023-02-01T09:28:19.703Z,96301.50
2023-02-01T09:30:46.552Z,96296.66
2023-02-01T09:33:13.195Z,96295.63
2023-02-01T09:35:39.705Z,96298.69
2023-02-01T09:38:06.360Z,96290.84
2023-02-01T09:40:35.285Z,96305.06
2023-02-01T09:43:28.143Z,96319.47
2023-02-01T09:46:11.600Z,96318.88
2023-02-01T09:48:41.688Z,96320.22
2023-02-01T09:51:16.870Z,96324.75
2023-02-01T09:53:48.903Z,96322.13
2023-02-01T09:56:24.478Z,96331.22
2023-02-01T09:59:12.026Z,96308.88
2023-02-01T10:01:38.920Z,96338.22
2023-02-01T10:04:13.320Z,96331.22
2023-02-01T10:06:48.645Z,96340.44
2023-02-01T10:09:18.104Z,96341.84
2023-02-01T10:12:09.411Z,96335.31
2023-02-01T10:14:57.754Z,96347.38
2023-02-01T10:17:49.198Z,96341.84
2023-02-01T10:20:29.005Z,96352.75
2023-02-01T10:23:27.229Z,96353.91
2023-02-01T10:26:27.308Z,96363.22
2023-02-01T10:28:58.779Z,96351.66
2023-02-01T10:31:32.819Z,96346.56
2023-02-01T10:34:14.951Z,96357.78
2023-02-01T10:36:45.780Z,96360.63
2023-02-01T10:39:15.255Z,96341.09
2023-02-01T10:41:41.954Z,96334.03
2023-02-01T10:44:17.723Z,96341.75
2023-02-01T10:46:44.492Z,96345.13
2023-02-01T10:49:27.637Z,96337.19
2023-02-01T10:52:03.087Z,96347.72
2023-02-01T10:54:41.555Z,96335.47
2023-02-01T10:57:21.536Z,96343.59
2023-02-01T10:59:48.037Z,96345.19
2023-02-01T11:02:27.270Z,96352.75
2023-02-01T11:05:01.372Z,96346.28
2023-02-01T11:07:27.829Z,96358.81
2023-02-01T11:09:57.204Z,96365.38
2023-02-01T11:12:26.195Z,96371.19
2023-02-01T11:14:59.416Z,96372.78
2023-02-01T11:17:36.267Z,96372.25
2023-02-01T11:20:15.269Z,96367.81
2023-02-01T11:22:53.912Z,96355.38
2023-02-01T11:25:20.856Z,96347.34
2023-02-01T11:27:54.658Z,96354.41
2023-02-01T11:30:32.342Z,96364.94
2023-02-01T11:33:00.005Z,96354.81
2023-02-01T11:35:29.359Z,96363.84
2023-02-01T11:37:59.995Z,96357.63
2023-02-01T11:40:34.975Z,96354.63
2023-02-01T11:43:08.171Z,96361.44
2023-02-01T11:45:44.014Z,96361.91
2023-02-01T11:48:26.314Z,96347.59
2023-02-01T11:50:59.652Z,96337.06
2023-02-01T11:53:37.475Z,96339.75
2023-02-01T11:56:12.319Z,96340.22
2023-02-01T11:58:45.012Z,96295.88
2023-02-01T12:01:30.982Z,96320.16
2023-02-01T12:04:18.857Z,96330.91
2023-02-01T12:06:57.837Z,96319.31
2023-02-01T12:09:43.050Z,96324.19
2023-02-01T12:12:26.559Z,96309.34
2023-02-01T12:15:03.808Z,96315.78
2023-02-01T12:17:55.858Z,96316.25
2023-02-01T12:20:35.083Z,96328.03
2023-02-01T12:23:18.015Z,96321.34
2023-02-01T12:25:58.173Z,96318.75
2023-02-01T12:28:36.841Z,96315.13
2023-02-01T12:31:31.254Z,96318.28
2023-02-01T12:34:29.868Z,96320.69
2023-02-01T12:37:08.842Z,96324.47
2023-02-01T12:39:54.973Z,96330.16
2023-02-01T12:42:32.401Z,96304.59
2023-02-01T12:45:31.306Z,96316.06
2023-02-01T12:48:17.931Z,96300.59
2023-02-01T12:50:54.388Z,96283.91
2023-02-01T12:54:00.971Z,96296.59
2023-02-01T12:56:39.527Z,96295.94
2023-02-01T12:59:27.901Z,96296.97
2023-02-01T13:02:00.348Z,96291.84
2023-02-01T13:04:36.949Z,96274.94
2023-02-01T13:07:07.320Z,96290.34
2023-02-01T13:09:48.280Z,96288.44
2023-02-01T13:12:21.207Z,96261.03
2023-02-01T13:14:55.487Z,96277.91
2023-02-01T13:17:28.801Z,96266.41
2023-02-01T13:20:20.073Z,96278.72
2023-02-01T13:22:53.625Z,96276.25
2023-02-01T13:25:29.664Z,96287.13
2023-02-01T13:28:05.392Z,96278.06
2023-02-01T13:30:47.582Z,96279.19
2023-02-01T13:33:54.358Z,96278.63
2023-02-01T13:36:48.175Z,96270.97
2023-02-01T13:39:39.929Z,96281.69
2023-02-01T13:42:16.580Z,96275.81
2023-02-01T13:44:53.463Z,96268.56
2023-02-01T13:47:35.324Z,96276.41
2023-02-01T13:50:22.783Z,96275.63
2023-02-01T13:53:08.546Z,96285.63
2023-02-01T13:55:38.784Z,96279.63
2023-02-01T13:58:21.872Z,96274.38
2023-02-01T14:00:52.167Z,96285.53
2023-02-01T14:03:21.674Z,96272.16
2023-02-01T14:05:51.239Z,96283.94
2023-02-01T14:08:38.475Z,96281.63
2023-02-01T14:11:06.288Z,96286.78
2023-02-01T14:13:41.339Z,96282.16
2023-02-01T14:16:07.930Z,96279.41
2023-02-01T14:18:34.315Z,96281.31
2023-02-01T14:21:23.826Z,96257.69
2023-02-01T14:23:53.486Z,96280.19
2023-02-01T14:26:42.305Z,96284.97
2023-02-01T14:29:21.639Z,96280.38
2023-02-01T14:32:06.967Z,96300.41
2023-02-01T14:34:38.673Z,96272.94
2023-02-01T14:37:09.575Z,96283.13
2023-02-01T14:39:50.774Z,96300.66
2023-02-01T14:42:25.634Z,96305.41
2023-02-01T14:44:59.121Z,96293.38
2023-02-01T14:47:28.275Z,96300.19
2023-02-01T14:50:17.507Z,96291.41
2023-02-01T14:52:52.708Z,96255.91
2023-02-01T14:55:32.735Z,96267.84
2023-02-01T14:58:02.468Z,96266.69
2023-02-01T15:00:31.672Z,96284.16
2023-02-01T15:03:24.982Z,96296.53
2023-02-01T15:05:59.356Z,96295.88
2023-02-01T15:08:32.245Z,96291.31
2023-02-01T15:11:02.405Z,96274.06
2023-02-01T15:13:29.785Z,96297.09
2023-02-01T15:16:14.443Z,96274.88
2023-02-01T15:18:41.659Z,96295.88
2023-02-01T15:21:28.127Z,96300.81
2023-02-01T15:24:11.913Z,96300.03
2023-02-01T15:26:38.626Z,96281.78
2023-02-01T15:29:05.110Z,96271.44
2023-02-01T15:31:34.648Z,96256.63
2023-02-01T15:34:01.201Z,96295.50
2023-02-01T15:36:29.692Z,96287.13
2023-02-01T15:39:19.625Z,96305.88
2023-02-01T15:42:16.399Z,96302.44
2023-02-01T15:44:47.085Z,96286.34
2023-02-01T15:47:20.515Z,96304.50
2023-02-01T15:49:51.273Z,96297.00
2023-02-01T15:52:38.457Z,96301.94
2023-02-01T15:55:09.784Z,96295.47
2023-02-01T15:57:40.400Z,96299.19
2023-02-01T16:00:24.581Z,96299.56
2023-02-01T16:02:55.643Z,96300.56
2023-02-01T16:05:31.505Z,96305.25
2023-02-01T16:08:04.858Z,96305.25
2023-02-01T16:10:32.748Z,96311.38
2023-02-01T16:13:01.178Z,96310.28
2023-02-01T16:15:30.676Z,96309.78
2023-02-01T16:17:57.130Z,96308.22
2023-02-01T16:20:23.559Z,96279.72
2023-02-01T16:22:50.160Z,96305.59
2023-02-01T16:25:17.193Z,96329.66
2023-02-01T16:27:43.813Z,96319.56
2023-02-01T16:30:11.589Z,96270.78
2023-02-01T16:32:41.494Z,96324.22
2023-02-01T16:35:22.926Z,96326.84
2023-02-01T16:37:49.748Z,96320.25
2023-02-01T16:40:17.565Z,96333.06
2023-02-01T16:42:44.316Z,96334.00
2023-02-01T16:45:10.948Z,96296.75
2023-02-01T16:47:39.172Z,96321.28
2023-02-01T16:50:24.032Z,96321.28
2023-02-01T16:52:51.728Z,96301.06
2023-02-01T16:55:22.537Z,96297.22
2023-02-01T16:57:49.330Z,96302.53
2023-02-01T17:00:25.525Z,96309.25
2023-02-01T17:02:54.269Z,96298.44
2023-02-01T17:05:21.060Z,96301.63
2023-02-01T17:07:47.621Z,96257.03
2023-02-01T17:10:33.461Z,96312.50
2023-02-01T17:13:00.789Z,96288.09
2023-02-01T17:15:30.278Z,96290.63
2023-02-01T17:17:58.688Z,96257.94
2023-02-01T17:20:29.736Z,96302.19
2023-02-01T17:22:56.287Z,96302.75
2023-02-01T17:25:23.615Z,96280.06
2023-02-01T17:27:50.285Z,96293.88
2023-02-01T17:30:17.603Z,96274.81
2023-02-01T17:32:44.663Z,96304.22
2023-02-01T17:35:19.877Z,96285.50
2023-02-01T17:37:46.924Z,96277.66
2023-02-01T17:40:13.509Z,96281.28
2023-02-01T17:42:39.994Z,96295.47
2023-02-01T17:45:31.403Z,96318.59
2023-02-01T17:47:58.261Z,96302.94
2023-02-01T17:50:28.210Z,96304.22
2023-02-01T17:52:54.604Z,96293.50
2023-02-01T17:55:24.515Z,96278.13
2023-02-01T17:57:51.375Z,96308.16
2023-02-01T18:00:19.271Z,96311.44
2023-02-01T18:02:45.903Z,96294.09
2023-02-01T18:05:18.125Z,96296.38
2023-02-01T18:07:44.556Z,96298.88
2023-02-01T18:10:11.431Z,96293.19
2023-02-01T18:12:39.170Z,96323.03
2023-02-01T18:15:24.868Z,96309.97
2023-02-01T18:17:52.035Z,96304.09
2023-02-01T18:20:24.537Z,96327.16
2023-02-01T18:22:51.437Z,96295.94
2023-02-01T18:25:25.935Z,96318.47
2023-02-01T18:27:54.707Z,96291.75
2023-02-01T18:30:23.180Z,96285.03
2023-02-01T18:32:50.062Z,96266.00
2023-02-01T18:35:25.809Z,96315.44
2023-02-01T18:37:53.463Z,96303.97
2023-02-01T18:40:25.984Z,96312.81
2023-02-01T18:42:52.461Z,96314.53
2023-02-01T18:45:40.063Z,96316.00
2023-02-01T18:48:08.333Z,96307.25
2023-02-01T18:50:40.126Z,96285.25
2023-02-01T18:53:12.736Z,96301.56
2023-02-01T18:55:39.171Z,96291.78
2023-02-01T18:58:06.757Z,96310.97
2023-02-01T19:00:34.943Z,96305.88
2023-02-01T19:03:01.791Z,96275.47
2023-02-01T19:05:28.304Z,96281.47
2023-02-01T19:07:54.850Z,96279.94
2023-02-01T19:10:22.989Z,96306.13
2023-02-01T19:12:55.484Z,96277.88
2023-02-01T19:15:22.644Z,96315.09
2023-02-01T19:17:51.372Z,96272.09
2023-02-01T19:20:20.225Z,96299.88
2023-02-01T19:22:47.354Z,96298.38
2023-02-01T19:25:16.994Z,96278.78
2023-02-01T19:27:43.614Z,96296.72
2023-02-01T19:30:12.756Z,96274.88
2023-02-01T19:32:40.042Z,96294.75
2023-02-01T19:35:08.349Z,96274.56
2023-02-01T19:37:34.742Z,96288.06
2023-02-01T19:40:01.397Z,96280.81
2023-02-01T19:42:28.153Z,96268.09
2023-02-01T19:44:54.675Z,96259.25
2023-02-01T19:47:21.122Z,96269.34
2023-02-01T19:49:47.519Z,96247.34
2023-02-01T19:52:13.927Z,96277.63
2023-02-01T19:54:40.358Z,96260.91
2023-02-01T19:57:06.776Z,96261.97
2023-02-01T19:59:33.277Z,96263.19
2023-02-01T20:01:58.976Z,96275.13
2023-02-01T20:04:26.289Z,96277.19
2023-02-01T20:06:54.862Z,96300.91
2023-02-01T20:09:27.963Z,96313.59
2023-02-01T20:11:54.447Z,96292.19
2023-02-01T20:14:27.153Z,96304.56
2023-02-01T20:16:53.853Z,96284.69
2023-02-01T20:19:20.414Z,96261.00
2023-02-01T20:21:47.155Z,96311.03
2023-02-01T20:24:17.134Z,96321.69
2023-02-01T20:26:45.781Z,96332.44
2023-02-01T20:29:13.482Z,96326.53
2023-02-01T20:31:40.537Z,96318.16
2023-02-01T20:34:13.919Z,96287.97
2023-02-01T20:36:40.502Z,96318.94
2023-02-01T20:39:06.962Z,96320.41
2023-02-01T20:41:33.969Z,96277.19
2023-02-01T20:44:00.475Z,96222.66
2023-02-01T20:46:26.925Z,96299.19
2023-02-01T20:48:56.492Z,96327.47
2023-02-01T20:51:24.009Z,96296.25
2023-02-01T20:53:55.045Z,96318.94
2023-02-01T20:56:21.774Z,96305.00
2023-02-01T20:58:48.494Z,96306.13
2023-02-01T21:01:15.921Z,96315.19
2023-02-01T21:03:43.200Z,96324.25
2023-02-01T21:06:12.045Z,96286.25
2023-02-01T21:08:38.669Z,96294.78
2023-02-01T21:11:08.558Z,96321.44
2023-02-01T21:13:42.690Z,96296.94
2023-02-01T21:16:11.759Z,96313.03
2023-02-01T21:18:38.327Z,96313.50
2023-02-01T21:21:10.333Z,96280.56
2023-02-01T21:23:47.537Z,96298.28
2023-02-01T21:26:17.276Z,96262.63
2023-02-01T21:28:44.675Z,96269.00
2023-02-01T21:31:11.297Z,96297.28
2023-02-01T21:33:39.404Z,96279.69
2023-02-01T21:36:07.068Z,96285.16
2023-02-01T21:38:34.345Z,96271.84
2023-02-01T21:41:19.567Z,96290.25
2023-02-01T21:43:46.108Z,96272.88
2023-02-01T21:46:12.598Z,96280.69
2023-02-01T21:49:04.620Z,96277.19
2023-02-01T21:51:28.435Z,96287.16
2023-02-01T21:53:56.034Z,96302.41
2023-02-01T21:56:22.807Z,96258.50
2023-02-01T21:58:49.234Z,96258.47
2023-02-01T22:01:15.824Z,96287.97
2023-02-01T22:03:42.474Z,96290.34
2023-02-01T22:06:08.984Z,96284.94
2023-02-01T22:08:38.664Z,96300.00
2023-02-01T22:11:05.754Z,96291.16
2023-02-01T22:13:32.248Z,96292.75
2023-02-01T22:15:58.724Z,96273.81
2023-02-01T22:18:25.263Z,96294.34
2023-02-01T22:20:58.810Z,96284.81
2023-02-01T22:23:27.749Z,96289.69
2023-02-01T22:26:08.916Z,96289.34
2023-02-01T22:28:36.856Z,96276.06
2023-02-01T22:31:06.145Z,96273.47
2023-02-01T22:33:33.600Z,96272.66
2023-02-01T22:36:01.622Z,96293.06
2023-02-01T22:38:31.555Z,96306.00
2023-02-01T22:41:05.540Z,96316.59
2023-02-01T22:43:32.883Z,96307.03
2023-02-01T22:46:01.167Z,96286.06
2023-02-01T22:48:29.648Z,96284.47
2023-02-01T22:50:59.945Z,96315.34
2023-02-01T22:53:27.645Z,96308.63
2023-02-01T22:56:00.763Z,96313.28
2023-02-01T22:58:27.346Z,96303.56
2023-02-01T23:00:53.765Z,96279.59
2023-02-01T23:03:20.190Z,96296.25
2023-02-01T23:05:46.904Z,96286.94
2023-02-01T23:08:13.547Z,96291.28
2023-02-01T23:10:39.950Z,96289.13
2023-02-01T23:13:06.343Z,96287.19
2023-02-01T23:15:32.824Z,96272.09
2023-02-01T23:17:59.247Z,96273.47
2023-02-01T23:20:26.029Z,96297.06
2023-02-01T23:22:52.410Z,96254.75
2023-02-01T23:25:19.002Z,96260.53
2023-02-01T23:27:47.185Z,96283.78
2023-02-01T23:30:15.798Z,96271.84
2023-02-01T23:32:42.998Z,96275.03
2023-02-01T23:35:09.682Z,96268.09
2023-02-01T23:37:36.094Z,96261.31
2023-02-01T23:40:02.581Z,96278.69
2023-02-01T23:42:29.093Z,96237.97
2023-02-01T23:44:55.529Z,96276.75
2023-02-01T23:47:21.922Z,96256.09
2023-02-01T23:49:48.363Z,96272.19
2023-02-01T23:52:14.766Z,96271.53
2023-02-01T23:54:41.158Z,96266.66
2023-02-01T23:57:07.913Z,96282.06
2023-02-01T23:59:34.363Z,96281.84
